createdAt,value
2023-02-17T00:03:33.105Z,38.85
2023-02-17T00:08:35.044Z,39.19
2023-02-17T00:13:36.604Z,39.76
2023-02-17T00:18:38.093Z,39.06
2023-02-17T00:23:39.582Z,39.22
2023-02-17T00:28:41.714Z,39.72
2023-02-17T00:33:43.679Z,39.55
2023-02-17T00:38:46.618Z,40.02
2023-02-17T00:43:49.503Z,39.59
2023-02-17T00:48:51.130Z,39.97
2023-02-17T00:53:52.666Z,39.73
2023-02-17T00:58:54.108Z,39.56
2023-02-17T01:03:55.578Z,39.71
2023-02-17T01:08:57.062Z,40.04
2023-02-17T01:14:01.789Z,40.24
2023-02-17T01:19:09.309Z,40.03
2023-02-17T01:24:12.493Z,39.70
2023-02-17T01:29:13.983Z,39.37
2023-02-17T01:34:15.489Z,39.43
2023-02-17T01:39:17.230Z,38.96
2023-02-17T01:44:23.805Z,39.78
2023-02-17T01:49:36.574Z,39.58
2023-02-17T01:54:46.331Z,39.33
2023-02-17T01:59:48.700Z,39.68
2023-02-17T02:04:53.233Z,40.02
2023-02-17T02:09:56.824Z,39.21
2023-02-17T02:15:06.418Z,38.81
2023-02-17T02:20:28.401Z,38.44
2023-02-17T02:25:51.678Z,38.35
2023-02-17T02:31:15.343Z,38.22
2023-02-17T02:36:29.483Z,38.34
2023-02-17T02:41:36.245Z,37.52
2023-02-17T02:46:38.462Z,36.36
2023-02-17T02:51:51.244Z,35.49
2023-02-17T02:57:06.937Z,35.82
2023-02-17T03:02:24.120Z,34.86
2023-02-17T03:07:33.787Z,34.98
2023-02-17T03:12:38.316Z,34.68
2023-02-17T03:17:40.224Z,34.74
2023-02-17T03:22:45.705Z,35.27
2023-02-17T03:27:48.836Z,34.98
2023-02-17T03:32:50.851Z,35.00
2023-02-17T03:37:52.365Z,35.20
2023-02-17T03:42:53.903Z,34.91
2023-02-17T03:47:55.358Z,35.48
2023-02-17T03:52:56.839Z,34.74
2023-02-17T03:57:58.322Z,35.42
2023-02-17T04:02:59.779Z,35.60
2023-02-17T04:08:01.232Z,35.78
2023-02-17T04:13:02.712Z,35.91
2023-02-17T04:18:04.174Z,35.67
2023-02-17T04:23:05.664Z,36.06
2023-02-17T04:28:07.544Z,36.10
2023-02-17T04:33:09.015Z,35.27
2023-02-17T04:38:11.027Z,35.79
2023-02-17T04:43:12.542Z,36.21
2023-02-17T04:48:14.067Z,36.01
2023-02-17T04:53:15.918Z,36.11
2023-02-17T04:58:18.000Z,35.66
2023-02-17T05:03:19.696Z,35.95
2023-02-17T05:08:21.311Z,35.63
2023-02-17T05:13:22.841Z,35.86
2023-02-17T05:18:24.303Z,35.93
2023-02-17T05:23:25.779Z,35.64
2023-02-17T05:28:27.344Z,36.26
2023-02-17T05:33:29.089Z,36.58
2023-02-17T05:38:30.664Z,36.84
2023-02-17T05:43:32.487Z,36.50
2023-02-17T05:48:34.047Z,36.63
2023-02-17T05:53:35.481Z,36.90
2023-02-17T05:58:37.036Z,36.95
2023-02-17T06:03:38.976Z,37.38
2023-02-17T06:08:40.420Z,37.15
2023-02-17T06:13:41.927Z,37.60
2023-02-17T06:18:43.397Z,37.41
2023-02-17T06:23:45.005Z,37.87
2023-02-17T06:28:46.581Z,38.12
2023-02-17T06:33:48.112Z,38.32
2023-02-17T06:38:49.658Z,38.43
2023-02-17T06:43:51.088Z,38.62
2023-02-17T06:48:52.571Z,38.75
2023-02-17T06:53:54.362Z,38.37
2023-02-17T06:58:55.857Z,38.05
2023-02-17T07:03:57.568Z,38.02
2023-02-17T07:08:59.060Z,37.43
2023-02-17T07:14:00.587Z,36.63
2023-02-17T07:19:02.065Z,38.51
2023-02-17T07:24:03.651Z,37.13
2023-02-17T07:29:06.484Z,36.38
2023-02-17T07:34:07.960Z,36.38
2023-02-17T07:39:09.439Z,35.58
2023-02-17T07:44:10.883Z,35.90
2023-02-17T07:49:14.749Z,35.73
2023-02-17T07:54:16.231Z,37.42
2023-02-17T07:59:17.722Z,37.05
2023-02-17T08:04:19.983Z,37.65
2023-02-17T08:09:21.458Z,37.71
2023-02-17T08:14:24.779Z,37.75
2023-02-17T08:19:31.739Z,38.02
2023-02-17T08:24:41.024Z,37.89
2023-02-17T08:29:43.263Z,37.95
2023-02-17T08:34:44.833Z,38.02
2023-02-17T08:39:46.329Z,38.63
2023-02-17T08:44:47.798Z,37.68
2023-02-17T08:49:49.331Z,37.85
2023-02-17T08:54:52.549Z,38.21
2023-02-17T08:59:54.311Z,37.74
2023-02-17T09:04:55.834Z,37.91
2023-02-17T09:09:57.437Z,38.15
2023-02-17T09:14:58.918Z,38.43
2023-02-17T09:20:00.406Z,38.13
2023-02-17T09:25:02.360Z,38.16
2023-02-17T09:30:04.394Z,37.71
2023-02-17T09:35:06.250Z,37.78
2023-02-17T09:40:09.977Z,37.87
2023-02-17T09:45:22.130Z,38.09
2023-02-17T09:50:29.543Z,38.38
2023-02-17T09:55:49.141Z,39.11
2023-02-17T10:00:55.969Z,38.67
2023-02-17T10:06:20.512Z,39.00
2023-02-17T10:11:29.944Z,39.34
2023-02-17T10:16:50.254Z,39.17
2023-02-17T10:22:02.169Z,39.61
2023-02-17T10:27:18.929Z,39.68
2023-02-17T10:32:25.828Z,39.92
2023-02-17T10:37:39.278Z,39.68
2023-02-17T10:42:40.818Z,42.06
2023-02-17T10:47:42.515Z,40.42
2023-02-17T10:52:44.008Z,40.80
2023-02-17T10:57:50.191Z,40.23
2023-02-17T11:02:53.255Z,39.67
2023-02-17T11:08:04.536Z,39.01
2023-02-17T11:13:37.150Z,38.13
2023-02-17T11:18:47.422Z,38.79
2023-02-17T11:23:55.305Z,38.91
2023-02-17T11:29:11.242Z,38.27
2023-02-17T11:34:23.444Z,38.02
2023-02-17T11:39:24.983Z,37.22
2023-02-17T11:44:28.250Z,37.81
2023-02-17T11:49:42.872Z,36.69
2023-02-17T11:55:05.449Z,36.00
2023-02-17T12:00:27.944Z,35.47
2023-02-17T12:06:06.152Z,36.09
2023-02-17T12:11:24.000Z,35.61
2023-02-17T12:17:02.906Z,36.37
2023-02-17T12:22:16.672Z,36.44
2023-02-17T12:27:54.406Z,36.89
2023-02-17T12:33:19.969Z,36.00
2023-02-17T12:38:32.724Z,36.31
2023-02-17T12:43:50.233Z,35.87
2023-02-17T12:48:57.335Z,36.15
2023-02-17T12:54:15.587Z,37.35
2023-02-17T12:59:21.646Z,39.22
2023-02-17T13:04:25.492Z,38.95
2023-02-17T13:09:36.746Z,38.50
2023-02-17T13:14:56.316Z,38.72
2023-02-17T13:20:03.991Z,40.01
2023-02-17T13:53:23.501Z,41.74
2023-02-17T14:03:52.539Z,41.87
2023-02-17T14:08:54.337Z,42.07
2023-02-17T14:13:57.636Z,42.09
2023-02-17T14:19:03.752Z,41.70
2023-02-17T14:24:05.430Z,42.26
2023-02-17T14:29:09.563Z,42.92
2023-02-17T14:34:29.136Z,42.97
2023-02-17T14:39:30.636Z,43.54
2023-02-17T14:44:32.170Z,43.08
2023-02-17T14:49:33.717Z,42.95
2023-02-17T14:54:35.246Z,43.15
2023-02-17T14:59:36.758Z,43.39
2023-02-17T15:04:38.281Z,43.67
2023-02-17T15:09:40.628Z,43.39
2023-02-17T15:14:42.141Z,43.30
2023-02-17T15:19:43.609Z,43.71
2023-02-17T15:24:45.127Z,44.39
2023-02-17T15:29:46.610Z,44.80
2023-02-17T15:34:48.266Z,45.04
2023-02-17T15:39:49.772Z,45.03
2023-02-17T15:44:51.246Z,45.42
2023-02-17T15:49:52.683Z,45.48
2023-02-17T15:54:54.208Z,45.36
2023-02-17T15:59:55.754Z,46.33
2023-02-17T16:04:57.202Z,46.03
2023-02-17T16:09:58.626Z,46.62
2023-02-17T16:15:00.196Z,46.71
2023-02-17T16:20:01.761Z,47.13
2023-02-17T16:25:03.423Z,46.93
2023-02-17T16:30:35.585Z,47.33
2023-02-17T16:35:37.779Z,47.35
2023-02-17T16:40:42.938Z,47.40
2023-02-17T16:45:51.230Z,47.01
2023-02-17T16:50:52.998Z,47.43
2023-02-17T16:55:54.918Z,47.93
2023-02-17T17:00:56.399Z,47.87
2023-02-17T17:05:57.996Z,48.14
2023-02-17T17:10:59.494Z,48.81
2023-02-17T17:16:01.026Z,48.82
2023-02-17T17:21:02.592Z,49.55
2023-02-17T17:26:33.747Z,48.41
2023-02-17T17:31:35.334Z,48.34
2023-02-17T17:36:41.054Z,48.38
2023-02-17T17:41:42.685Z,48.09
2023-02-17T17:46:44.457Z,47.41
2023-02-17T17:51:46.081Z,47.29
2023-02-17T17:56:47.614Z,47.52
2023-02-17T18:01:49.208Z,47.02
2023-02-17T18:06:53.703Z,47.28
2023-02-17T18:11:56.765Z,47.58
2023-02-17T18:16:58.794Z,47.19
2023-02-17T18:22:00.326Z,47.23
2023-02-17T18:27:01.832Z,47.05
2023-02-17T18:32:03.424Z,47.30
2023-02-17T18:37:07.245Z,47.64
2023-02-17T18:42:08.780Z,47.72
2023-02-17T18:47:10.385Z,47.25
2023-02-17T18:52:11.860Z,47.29
2023-02-17T18:57:13.568Z,46.73
2023-02-17T19:02:15.052Z,47.06
2023-02-17T19:07:16.507Z,47.31
2023-02-17T19:12:18.104Z,47.60
2023-02-17T19:17:19.582Z,47.84
2023-02-17T19:22:21.135Z,48.30
2023-02-17T19:27:22.670Z,49.26
2023-02-17T19:32:24.180Z,50.03
2023-02-17T19:37:25.685Z,49.93
2023-02-17T19:42:27.245Z,50.11
2023-02-17T19:47:28.757Z,49.99
2023-02-17T19:52:30.204Z,49.40
2023-02-17T19:57:31.683Z,49.71
2023-02-17T20:02:33.260Z,49.68
2023-02-17T20:07:34.867Z,49.65
2023-02-17T20:12:37.022Z,49.65
2023-02-17T20:17:38.535Z,49.27
2023-02-17T20:22:40.531Z,48.95
2023-02-17T20:27:42.043Z,49.33
2023-02-17T20:32:43.533Z,48.71
2023-02-17T20:37:44.990Z,49.23
2023-02-17T20:42:46.485Z,49.26
2023-02-17T20:47:47.997Z,49.21
2023-02-17T20:52:49.900Z,49.46
2023-02-17T20:57:51.429Z,48.96
2023-02-17T21:02:53.148Z,49.56
2023-02-17T21:07:56.825Z,49.46
2023-02-17T21:12:58.323Z,49.26
2023-02-17T21:17:59.862Z,49.18
2023-02-17T21:23:01.318Z,49.52
2023-02-17T21:28:02.802Z,49.64
2023-02-17T21:33:04.319Z,49.35
2023-02-17T21:38:05.836Z,48.73
2023-02-17T21:43:07.325Z,48.68
2023-02-17T21:48:08.874Z,48.96
2023-02-17T21:53:10.379Z,49.04
2023-02-17T21:58:11.879Z,48.75
2023-02-17T22:03:13.318Z,48.84
2023-02-17T22:08:14.794Z,48.76
2023-02-17T22:13:16.252Z,48.60
2023-02-17T22:18:17.684Z,48.54
2023-02-17T22:23:19.127Z,48.78
2023-02-17T22:28:20.681Z,48.68
2023-02-17T22:33:22.192Z,48.86
2023-02-17T22:38:23.674Z,48.60
2023-02-17T22:43:25.223Z,49.07
2023-02-17T22:48:28.498Z,49.69
2023-02-17T22:53:30.026Z,50.12
2023-02-17T22:58:32.525Z,50.02
2023-02-17T23:03:34.955Z,50.73
2023-02-17T23:08:36.933Z,50.16
2023-02-17T23:13:38.934Z,50.25
2023-02-17T23:18:40.375Z,50.38
2023-02-17T23:23:41.886Z,50.56
2023-02-17T23:28:43.323Z,51.03
2023-02-17T23:33:44.743Z,51.82
2023-02-17T23:38:46.247Z,51.50
2023-02-17T23:43:47.702Z,51.77
2023-02-17T23:48:49.376Z,51.76
2023-02-17T23:53:51.242Z,51.93
2023-02-17T23:58:52.788Z,52.46
